sensor_id;sensor_type;location;lat;lon;timestamp;pressure;altitude;pressure_sealevel;temperature;humidity
72086;BME280;64750;52.134;5.424;2023-01-23T00:02:26;103815.69;;;1.66;90.47
72086;BME280;64750;52.134;5.424;2023-01-23T00:04:53;103820.91;;;1.68;89.75
72086;BME280;64750;52.134;5.424;2023-01-23T00:07:19;103826.09;;;1.68;90.12
72086;BME280;64750;52.134;5.424;2023-01-23T00:09:45;103831.25;;;1.68;90.23
72086;BME280;64750;52.134;5.424;2023-01-23T00:12:12;103831.25;;;1.68;90.14
72086;BME280;64750;52.134;5.424;2023-01-23T00:14:38;103829.50;;;1.67;89.91
72086;BME280;64750;52.134;5.424;2023-01-23T00:17:05;103831.19;;;1.64;90.13
72086;BME280;64750;52.134;5.424;2023-01-23T00:19:31;103830.31;;;1.64;90.01
72086;BME280;64750;52.134;5.424;2023-01-23T00:21:58;103829.44;;;1.63;90.64
72086;BME280;64750;52.134;5.424;2023-01-23T00:24:26;103834.63;;;1.63;90.73
72086;BME280;64750;52.134;5.424;2023-01-23T00:26:52;103838.06;;;1.62;90.17
72086;BME280;64750;52.134;5.424;2023-01-23T00:29:19;103832.81;;;1.59;90.99
72086;BME280;64750;52.134;5.424;2023-01-23T00:31:45;103830.25;;;1.61;90.56
72086;BME280;64750;52.134;5.424;2023-01-23T00:34:13;103833.75;;;1.63;90.65
72086;BME280;64750;52.134;5.424;2023-01-23T00:36:41;103828.59;;;1.64;91.16
72086;BME280;64750;52.134;5.424;2023-01-23T00:39:16;103831.19;;;1.64;91.19
72086;BME280;64750;52.134;5.424;2023-01-23T00:41:44;103837.19;;;1.62;91.06
72086;BME280;64750;52.134;5.424;2023-01-23T00:44:11;103828.50;;;1.61;91.07
72086;BME280;64750;52.134;5.424;2023-01-23T00:46:38;103840.66;;;1.62;91.25
72086;BME280;64750;52.134;5.424;2023-01-23T00:49:05;103823.25;;;1.58;90.96
72086;BME280;64750;52.134;5.424;2023-01-23T00:51:32;103828.50;;;1.61;91.26
72086;BME280;64750;52.134;5.424;2023-01-23T00:53:59;103816.44;;;1.62;90.92
72086;BME280;64750;52.134;5.424;2023-01-23T00:56:26;103819.03;;;1.62;91.07
72086;BME280;64750;52.134;5.424;2023-01-23T00:58:52;103825.97;;;1.63;91.09
72086;BME280;64750;52.134;5.424;2023-01-23T01:01:19;103832.97;;;1.66;91.16
72086;BME280;64750;52.134;5.424;2023-01-23T01:03:48;103831.19;;;1.64;91.23
72086;BME280;64750;52.134;5.424;2023-01-23T01:06:14;103817.31;;;1.62;91.22
72086;BME280;64750;52.134;5.424;2023-01-23T01:08:41;103814.75;;;1.64;90.94
72086;BME280;64750;52.134;5.424;2023-01-23T01:11:07;103815.66;;;1.64;90.98
72086;BME280;64750;52.134;5.424;2023-01-23T01:13:34;103815.66;;;1.64;91.16
72086;BME280;64750;52.134;5.424;2023-01-23T01:16:01;103813.91;;;1.65;91.57
72086;BME280;64750;52.134;5.424;2023-01-23T01:18:28;103814.75;;;1.64;91.38
72086;BME280;64750;52.134;5.424;2023-01-23T01:20:55;103806.94;;;1.62;91.63
72086;BME280;64750;52.134;5.424;2023-01-23T01:23:22;103806.94;;;1.62;91.66
72086;BME280;64750;52.134;5.424;2023-01-23T01:25:48;103812.13;;;1.62;90.99
72086;BME280;64750;52.134;5.424;2023-01-23T01:28:14;103819.06;;;1.63;91.35
72086;BME280;64750;52.134;5.424;2023-01-23T01:30:41;103811.28;;;1.63;91.29
72086;BME280;64750;52.134;5.424;2023-01-23T01:33:07;103815.56;;;1.61;91.82
72086;BME280;64750;52.134;5.424;2023-01-23T01:35:34;103826.84;;;1.63;91.33
72086;BME280;64750;52.134;5.424;2023-01-23T01:38:00;103824.25;;;1.63;91.51
72086;BME280;64750;52.134;5.424;2023-01-23T01:40:32;103832.97;;;1.66;91.57
72086;BME280;64750;52.134;5.424;2023-01-23T01:43:01;103832.88;;;1.62;91.63
72086;BME280;64750;52.134;5.424;2023-01-23T01:51:07;103818.13;;;1.61;91.57
72086;BME280;64750;52.134;5.424;2023-01-23T01:53:36;103812.97;;;1.61;91.48
72086;BME280;64750;52.134;5.424;2023-01-23T01:56:04;103825.09;;;1.62;91.64
72086;BME280;64750;52.134;5.424;2023-01-23T01:58:31;103823.41;;;1.63;91.50
72086;BME280;64750;52.134;5.424;2023-01-23T02:00:57;103832.06;;;1.65;91.71
72086;BME280;64750;52.134;5.424;2023-01-23T02:03:24;103826.91;;;1.67;92.02
72086;BME280;64750;52.134;5.424;2023-01-23T02:05:51;103827.78;;;1.66;91.77
72086;BME280;64750;52.134;5.424;2023-01-23T02:08:32;103834.69;;;1.67;91.19
72086;BME280;64750;52.134;5.424;2023-01-23T02:11:00;103836.44;;;1.68;91.23
72086;BME280;64750;52.134;5.424;2023-01-23T02:13:35;103831.25;;;1.68;91.63
72086;BME280;64750;52.134;5.424;2023-01-23T02:16:08;103836.44;;;1.68;91.45
72086;BME280;64750;52.134;5.424;2023-01-23T02:18:38;103826.97;;;1.68;91.36
72086;BME280;64750;52.134;5.424;2023-01-23T02:21:08;103832.09;;;1.67;91.67
72086;BME280;64750;52.134;5.424;2023-01-23T02:26:20;103845.97;;;1.67;91.38
72086;BME280;64750;52.134;5.424;2023-01-23T02:28:50;103834.69;;;1.67;91.54
72086;BME280;64750;52.134;5.424;2023-01-23T02:31:18;103845.97;;;1.67;91.15
72086;BME280;64750;52.134;5.424;2023-01-23T02:33:48;103843.41;;;1.69;91.80
72086;BME280;64750;52.134;5.424;2023-01-23T02:36:17;103834.75;;;1.68;91.48
72086;BME280;64750;52.134;5.424;2023-01-23T02:38:52;103844.25;;;1.69;91.58
72086;BME280;64750;52.134;5.424;2023-01-23T02:41:29;103848.59;;;1.69;91.57
72086;BME280;64750;52.134;5.424;2023-01-23T02:44:00;103846.81;;;1.68;91.46
72086;BME280;64750;52.134;5.424;2023-01-23T02:46:27;103848.59;;;1.69;91.80
72086;BME280;64750;52.134;5.424;2023-01-23T02:48:53;103853.78;;;1.69;91.97
72086;BME280;64750;52.134;5.424;2023-01-23T02:51:20;103860.72;;;1.70;91.80
72086;BME280;64750;52.134;5.424;2023-01-23T02:53:47;103865.00;;;1.69;91.77
72086;BME280;64750;52.134;5.424;2023-01-23T02:56:14;103869.38;;;1.70;91.71
72086;BME280;64750;52.134;5.424;2023-01-23T02:58:41;103862.47;;;1.71;91.39
72086;BME280;64750;52.134;5.424;2023-01-23T03:01:26;103864.22;;;1.72;91.74
72086;BME280;64750;52.134;5.424;2023-01-23T03:03:53;103862.47;;;1.71;91.79
72086;BME280;64750;52.134;5.424;2023-01-23T03:06:23;103865.06;;;1.71;91.85
72086;BME280;64750;52.134;5.424;2023-01-23T03:08:49;103865.06;;;1.71;91.80
72086;BME280;64750;52.134;5.424;2023-01-23T03:11:17;103859.88;;;1.71;92.13
72086;BME280;64750;52.134;5.424;2023-01-23T03:13:45;103865.91;;;1.70;91.86
72086;BME280;64750;52.134;5.424;2023-01-23T03:16:12;103862.41;;;1.69;91.50
72086;BME280;64750;52.134;5.424;2023-01-23T03:18:38;103865.91;;;1.70;91.52
72086;BME280;64750;52.134;5.424;2023-01-23T03:21:18;103863.31;;;1.70;91.50
72086;BME280;64750;52.134;5.424;2023-01-23T03:23:44;103860.72;;;1.70;92.03
72086;BME280;64750;52.134;5.424;2023-01-23T03:26:13;103869.31;;;1.69;92.11
72086;BME280;64750;52.134;5.424;2023-01-23T03:28:40;103855.44;;;1.67;91.83
72086;BME280;64750;52.134;5.424;2023-01-23T03:31:25;103862.38;;;1.68;92.21
72086;BME280;64750;52.134;5.424;2023-01-23T03:33:51;103859.78;;;1.68;92.17
72086;BME280;64750;52.134;5.424;2023-01-23T03:36:18;103865.00;;;1.69;91.92
72086;BME280;64750;52.134;5.424;2023-01-23T03:38:45;103869.31;;;1.69;91.94
72086;BME280;64750;52.134;5.424;2023-01-23T03:41:30;103867.59;;;1.69;92.05
72086;BME280;64750;52.134;5.424;2023-01-23T03:43:56;103865.06;;;1.71;92.34
72086;BME280;64750;52.134;5.424;2023-01-23T03:46:22;103856.44;;;1.72;91.85
72086;BME280;64750;52.134;5.424;2023-01-23T03:48:49;103863.34;;;1.71;91.75
72086;BME280;64750;52.134;5.424;2023-01-23T03:51:15;103861.63;;;1.72;92.31
72086;BME280;64750;52.134;5.424;2023-01-23T03:53:42;103866.81;;;1.72;91.72
72086;BME280;64750;52.134;5.424;2023-01-23T03:56:08;103863.38;;;1.73;92.01
72086;BME280;64750;52.134;5.424;2023-01-23T03:58:35;103866.88;;;1.73;91.91
72086;BME280;64750;52.134;5.424;2023-01-23T04:01:05;103865.97;;;1.73;91.72
72086;BME280;64750;52.134;5.424;2023-01-23T04:03:31;103875.47;;;1.72;92.30
72086;BME280;64750;52.134;5.424;2023-01-23T04:05:58;103866.81;;;1.72;92.55
72086;BME280;64750;52.134;5.424;2023-01-23T04:08:24;103872.06;;;1.73;92.60
72086;BME280;64750;52.134;5.424;2023-01-23T04:10:59;103867.72;;;1.74;91.87
72086;BME280;64750;52.134;5.424;2023-01-23T04:13:26;103867.75;;;1.75;91.95
72086;BME280;64750;52.134;5.424;2023-01-23T04:15:52;103875.53;;;1.75;91.70
72086;BME280;64750;52.134;5.424;2023-01-23T04:18:19;103869.50;;;1.75;91.80
72086;BME280;64750;52.134;5.424;2023-01-23T04:20:46;103877.28;;;1.75;92.26
72086;BME280;64750;52.134;5.424;2023-01-23T04:23:12;103877.25;;;1.73;91.97
72086;BME280;64750;52.134;5.424;2023-01-23T04:25:39;103885.06;;;1.75;91.71
72086;BME280;64750;52.134;5.424;2023-01-23T04:28:05;103879.88;;;1.75;92.25
72086;BME280;64750;52.134;5.424;2023-01-23T04:30:31;103882.44;;;1.73;91.68
72086;BME280;64750;52.134;5.424;2023-01-23T04:32:58;103881.53;;;1.73;92.18
72086;BME280;64750;52.134;5.424;2023-01-23T04:35:25;103881.53;;;1.73;92.18
72086;BME280;64750;52.134;5.424;2023-01-23T04:37:51;103884.13;;;1.73;92.10
72086;BME280;64750;52.134;5.424;2023-01-23T04:40:18;103884.13;;;1.73;92.41
72086;BME280;64750;52.134;5.424;2023-01-23T04:42:45;103877.25;;;1.73;91.86
72086;BME280;64750;52.134;5.424;2023-01-23T04:45:11;103887.66;;;1.75;92.04
72086;BME280;64750;52.134;5.424;2023-01-23T04:47:37;103877.31;;;1.76;91.97
72086;BME280;64750;52.134;5.424;2023-01-23T04:50:04;103887.66;;;1.75;92.47
72086;BME280;64750;52.134;5.424;2023-01-23T04:52:31;103879.88;;;1.75;92.53
72086;BME280;64750;52.134;5.424;2023-01-23T04:54:57;103882.50;;;1.76;92.51
72086;BME280;64750;52.134;5.424;2023-01-23T04:57:23;103879.03;;;1.76;92.08
72086;BME280;64750;52.134;5.424;2023-01-23T04:59:50;103877.31;;;1.76;92.30
72086;BME280;64750;52.134;5.424;2023-01-23T05:02:16;103880.78;;;1.77;92.15
72086;BME280;64750;52.134;5.424;2023-01-23T05:04:43;103874.69;;;1.75;92.22
72086;BME280;64750;52.134;5.424;2023-01-23T05:07:10;103889.44;;;1.77;92.77
72086;BME280;64750;52.134;5.424;2023-01-23T05:09:39;103882.53;;;1.78;92.56
72086;BME280;64750;52.134;5.424;2023-01-23T05:12:05;103892.03;;;1.77;92.62
72086;BME280;64750;52.134;5.424;2023-01-23T05:14:32;103888.56;;;1.77;91.98
72086;BME280;64750;52.134;5.424;2023-01-23T05:16:58;103892.91;;;1.78;92.41
72086;BME280;64750;52.134;5.424;2023-01-23T05:19:25;103899.84;;;1.79;92.42
72086;BME280;64750;52.134;5.424;2023-01-23T05:21:51;103900.69;;;1.78;92.62
72086;BME280;64750;52.134;5.424;2023-01-23T05:24:17;103893.81;;;1.80;91.90
72086;BME280;64750;52.134;5.424;2023-01-23T05:26:44;103899.00;;;1.80;92.11
72086;BME280;64750;52.134;5.424;2023-01-23T05:29:10;103903.38;;;1.81;92.73
72086;BME280;64750;52.134;5.424;2023-01-23T05:31:36;103902.44;;;1.79;92.21
72086;BME280;64750;52.134;5.424;2023-01-23T05:34:03;103904.19;;;1.80;91.93
72086;BME280;64750;52.134;5.424;2023-01-23T05:36:29;103902.44;;;1.79;92.30
72086;BME280;64750;52.134;5.424;2023-01-23T05:38:56;103904.19;;;1.80;92.47
72086;BME280;64750;52.134;5.424;2023-01-23T05:41:22;103911.97;;;1.80;92.07
72086;BME280;64750;52.134;5.424;2023-01-23T05:43:51;103909.38;;;1.80;92.62
72086;BME280;64750;52.134;5.424;2023-01-23T05:46:17;103906.81;;;1.82;92.28
72086;BME280;64750;52.134;5.424;2023-01-23T05:48:47;103906.81;;;1.82;92.33
72086;BME280;64750;52.134;5.424;2023-01-23T05:51:14;103908.56;;;1.81;92.00
72086;BME280;64750;52.134;5.424;2023-01-23T05:53:40;103905.97;;;1.81;92.26
72086;BME280;64750;52.134;5.424;2023-01-23T05:56:07;103904.19;;;1.80;92.05
72086;BME280;64750;52.134;5.424;2023-01-23T05:58:33;103902.44;;;1.79;92.65
72086;BME280;64750;52.134;5.424;2023-01-23T06:01:03;103903.28;;;1.78;92.74
72086;BME280;64750;52.134;5.424;2023-01-23T06:03:30;103900.69;;;1.78;92.92
72086;BME280;64750;52.134;5.424;2023-01-23T06:05:56;103898.94;;;1.77;92.71
72086;BME280;64750;52.134;5.424;2023-01-23T06:08:23;103904.97;;;1.76;92.92
72086;BME280;64750;52.134;5.424;2023-01-23T06:10:49;103901.44;;;1.74;92.76
72086;BME280;64750;52.134;5.424;2023-01-23T06:13:16;103904.03;;;1.74;92.59
72086;BME280;64750;52.134;5.424;2023-01-23T06:15:42;103903.19;;;1.75;92.90
72086;BME280;64750;52.134;5.424;2023-01-23T06:18:08;103900.66;;;1.76;92.90
72086;BME280;64750;52.134;5.424;2023-01-23T06:20:35;103909.31;;;1.77;92.74
72086;BME280;64750;52.134;5.424;2023-01-23T06:23:01;103907.56;;;1.76;92.47
72086;BME280;64750;52.134;5.424;2023-01-23T06:25:28;103910.16;;;1.76;92.85
72086;BME280;64750;52.134;5.424;2023-01-23T06:27:54;103911.06;;;1.78;92.50
72086;BME280;64750;52.134;5.424;2023-01-23T06:30:20;103923.19;;;1.79;92.62
72086;BME280;64750;52.134;5.424;2023-01-23T06:32:47;103919.72;;;1.78;92.99
72086;BME280;64750;52.134;5.424;2023-01-23T06:35:14;103932.69;;;1.78;92.61
72086;BME280;64750;52.134;5.424;2023-01-23T06:37:40;103940.50;;;1.80;92.57
72086;BME280;64750;52.134;5.424;2023-01-23T06:40:07;103938.75;;;1.79;93.08
72086;BME280;64750;52.134;5.424;2023-01-23T06:42:39;103940.50;;;1.80;92.66
72086;BME280;64750;52.134;5.424;2023-01-23T06:45:06;103936.97;;;1.78;93.13
72086;BME280;64750;52.134;5.424;2023-01-23T06:47:33;103950.88;;;1.80;92.70
72086;BME280;64750;52.134;5.424;2023-01-23T06:49:59;103958.69;;;1.82;92.96
72086;BME280;64750;52.134;5.424;2023-01-23T06:52:28;103960.44;;;1.81;93.27
72086;BME280;64750;52.134;5.424;2023-01-23T06:54:54;103951.81;;;1.82;92.74
72086;BME280;64750;52.134;5.424;2023-01-23T06:57:21;103950.94;;;1.83;92.78
72086;BME280;64750;52.134;5.424;2023-01-23T06:59:48;103955.31;;;1.84;92.51
72086;BME280;64750;52.134;5.424;2023-01-23T07:02:14;103954.47;;;1.85;92.77
72086;BME280;64750;52.134;5.424;2023-01-23T07:04:41;103942.34;;;1.84;92.53
72086;BME280;64750;52.134;5.424;2023-01-23T07:07:07;103945.75;;;1.83;92.55
72086;BME280;64750;52.134;5.424;2023-01-23T07:09:34;103935.38;;;1.83;93.07
72086;BME280;64750;52.134;5.424;2023-01-23T07:12:00;103934.53;;;1.83;92.93
72086;BME280;64750;52.134;5.424;2023-01-23T07:14:26;103937.09;;;1.81;92.60
72086;BME280;64750;52.134;5.424;2023-01-23T07:16:54;103937.13;;;1.83;92.10
72086;BME280;64750;52.134;5.424;2023-01-23T07:19:20;103943.97;;;1.80;92.15
72086;BME280;64750;52.134;5.424;2023-01-23T07:21:47;103936.25;;;1.82;92.30
72086;BME280;64750;52.134;5.424;2023-01-23T07:24:14;103936.25;;;1.82;92.45
72086;BME280;64750;52.134;5.424;2023-01-23T07:26:40;103944.09;;;1.85;92.33
72086;BME280;64750;52.134;5.424;2023-01-23T07:29:07;103945.75;;;1.83;92.67
72086;BME280;64750;52.134;5.424;2023-01-23T07:31:36;103946.66;;;1.84;92.74
72086;BME280;64750;52.134;5.424;2023-01-23T07:34:02;103951.06;;;1.86;92.64
72086;BME280;64750;52.134;5.424;2023-01-23T07:36:29;103961.44;;;1.86;92.20
72086;BME280;64750;52.134;5.424;2023-01-23T07:38:55;103959.72;;;1.88;92.59
72086;BME280;64750;52.134;5.424;2023-01-23T07:41:24;103951.91;;;1.87;92.65
72086;BME280;64750;52.134;5.424;2023-01-23T07:43:50;103947.63;;;1.87;92.52
72086;BME280;64750;52.134;5.424;2023-01-23T07:46:17;103947.63;;;1.87;91.75
72086;BME280;64750;52.134;5.424;2023-01-23T07:48:43;103949.28;;;1.85;92.49
72086;BME280;64750;52.134;5.424;2023-01-23T07:51:10;103964.06;;;1.88;92.17
72086;BME280;64750;52.134;5.424;2023-01-23T07:53:37;103967.59;;;1.90;92.43
72086;BME280;64750;52.134;5.424;2023-01-23T07:56:04;103978.75;;;1.87;92.63
72086;BME280;64750;52.134;5.424;2023-01-23T07:58:31;103996.03;;;1.88;92.38
72086;BME280;64750;52.134;5.424;2023-01-23T08:00:58;104004.75;;;1.90;92.35
72086;BME280;64750;52.134;5.424;2023-01-23T08:03:25;104003.97;;;1.93;92.82
72086;BME280;64750;52.134;5.424;2023-01-23T08:05:55;104007.38;;;1.92;92.51
72086;BME280;64750;52.134;5.424;2023-01-23T08:08:21;104008.31;;;1.94;92.52
72086;BME280;64750;52.134;5.424;2023-01-23T08:10:47;104003.16;;;1.95;92.34
72086;BME280;64750;52.134;5.424;2023-01-23T08:13:13;103993.66;;;1.96;92.27
72086;BME280;64750;52.134;5.424;2023-01-23T08:15:40;104003.16;;;1.95;92.57
72086;BME280;64750;52.134;5.424;2023-01-23T08:18:06;104005.81;;;1.97;92.75
72086;BME280;64750;52.134;5.424;2023-01-23T08:20:33;103993.75;;;1.99;92.51
72086;BME280;64750;52.134;5.424;2023-01-23T08:22:59;104001.56;;;2.01;93.12
72086;BME280;64750;52.134;5.424;2023-01-23T08:25:27;104002.50;;;2.03;92.08
72086;BME280;64750;52.134;5.424;2023-01-23T08:27:53;104000.78;;;2.03;92.48
72086;BME280;64750;52.134;5.424;2023-01-23T08:30:20;104012.03;;;2.04;92.37
72086;BME280;64750;52.134;5.424;2023-01-23T08:32:47;104016.38;;;2.05;92.64
72086;BME280;64750;52.134;5.424;2023-01-23T08:35:14;104007.81;;;2.07;92.12
72086;BME280;64750;52.134;5.424;2023-01-23T08:37:40;104008.72;;;2.09;92.26
72086;BME280;64750;52.134;5.424;2023-01-23T08:40:08;104013.09;;;2.10;92.23
72086;BME280;64750;52.134;5.424;2023-01-23T08:42:34;104006.22;;;2.12;92.21
72086;BME280;64750;52.134;5.424;2023-01-23T08:45:01;104007.09;;;2.13;92.28
72086;BME280;64750;52.134;5.424;2023-01-23T08:47:27;104006.22;;;2.12;92.32
72086;BME280;64750;52.134;5.424;2023-01-23T08:49:53;104007.94;;;2.12;92.49
72086;BME280;64750;52.134;5.424;2023-01-23T08:52:20;104004.50;;;2.13;91.91
72086;BME280;64750;52.134;5.424;2023-01-23T08:54:46;104005.38;;;2.13;92.07
72086;BME280;64750;52.134;5.424;2023-01-23T08:57:12;104012.34;;;2.16;92.52
72086;BME280;64750;52.134;5.424;2023-01-23T08:59:39;104016.72;;;2.17;92.76
72086;BME280;64750;52.134;5.424;2023-01-23T09:02:10;104028.91;;;2.20;92.14
72086;BME280;64750;52.134;5.424;2023-01-23T09:04:37;104034.94;;;2.20;92.33
72086;BME280;64750;52.134;5.424;2023-01-23T09:07:04;104038.38;;;2.19;91.96
72086;BME280;64750;52.134;5.424;2023-01-23T09:09:30;104038.38;;;2.19;91.96
72086;BME280;64750;52.134;5.424;2023-01-23T09:11:57;104037.50;;;2.19;92.48
72086;BME280;64750;52.134;5.424;2023-01-23T09:14:23;104034.13;;;2.21;92.71
72086;BME280;64750;52.134;5.424;2023-01-23T09:16:50;104033.28;;;2.22;91.72
72086;BME280;64750;52.134;5.424;2023-01-23T09:19:16;104040.25;;;2.23;92.00
72086;BME280;64750;52.134;5.424;2023-01-23T09:21:43;104030.69;;;2.22;91.70
72086;BME280;64750;52.134;5.424;2023-01-23T09:24:09;104038.53;;;2.25;92.61
72086;BME280;64750;52.134;5.424;2023-01-23T09:26:36;104035.13;;;2.26;92.01
72086;BME280;64750;52.134;5.424;2023-01-23T09:29:02;104030.81;;;2.27;92.29
72086;BME280;64750;52.134;5.424;2023-01-23T09:31:29;104031.69;;;2.27;92.16
72086;BME280;64750;52.134;5.424;2023-01-23T09:33:56;104036.09;;;2.30;92.00
72086;BME280;64750;52.134;5.424;2023-01-23T09:36:22;104037.84;;;2.31;92.29
72086;BME280;64750;52.134;5.424;2023-01-23T09:39:07;104043.94;;;2.33;91.74
72086;BME280;64750;52.134;5.424;2023-01-23T09:41:34;104042.25;;;2.34;92.31
72086;BME280;64750;52.134;5.424;2023-01-23T09:46:48;104047.50;;;2.37;92.18
72086;BME280;64750;52.134;5.424;2023-01-23T09:49:25;104052.72;;;2.38;91.81
72086;BME280;64750;52.134;5.424;2023-01-23T09:54:57;104044.06;;;2.38;91.58
72086;BME280;64750;52.134;5.424;2023-01-23T10:00:03;104049.31;;;2.41;91.30
72086;BME280;64750;52.134;5.424;2023-01-23T10:02:30;104046.69;;;2.39;91.32
72086;BME280;64750;52.134;5.424;2023-01-23T10:04:57;104057.97;;;2.40;91.39
72086;BME280;64750;52.134;5.424;2023-01-23T10:10:17;104058.88;;;2.42;91.57
72086;BME280;64750;52.134;5.424;2023-01-23T10:12:59;104057.22;;;2.44;91.30
72086;BME280;64750;52.134;5.424;2023-01-23T10:16:04;104067.66;;;2.47;91.62
72086;BME280;64750;52.134;5.424;2023-01-23T10:19:08;104053.88;;;2.50;91.64
72086;BME280;64750;52.134;5.424;2023-01-23T10:21:50;104049.63;;;2.52;91.48
72086;BME280;64750;52.134;5.424;2023-01-23T10:24:35;104052.25;;;2.53;91.19
72086;BME280;64750;52.134;5.424;2023-01-23T10:27:37;104044.47;;;2.53;90.95
72086;BME280;64750;52.134;5.424;2023-01-23T10:32:47;104044.47;;;2.53;91.24
72086;BME280;64750;52.134;5.424;2023-01-23T10:35:18;104042.78;;;2.55;91.02
72086;BME280;64750;52.134;5.424;2023-01-23T10:37:54;104033.31;;;2.57;91.24
72086;BME280;64750;52.134;5.424;2023-01-23T10:40:25;104031.63;;;2.59;91.26
72086;BME280;64750;52.134;5.424;2023-01-23T10:43:20;104029.91;;;2.60;91.10
72086;BME280;64750;52.134;5.424;2023-01-23T10:45:48;104035.13;;;2.61;91.00
72086;BME280;64750;52.134;5.424;2023-01-23T10:48:37;104039.50;;;2.62;90.68
72086;BME280;64750;52.134;5.424;2023-01-23T10:51:23;104037.00;;;2.66;91.13
72086;BME280;64750;52.134;5.424;2023-01-23T10:56:33;104046.53;;;2.67;90.68
72086;BME280;64750;52.134;5.424;2023-01-23T10:59:02;104043.06;;;2.68;90.35
72086;BME280;64750;52.134;5.424;2023-01-23T11:01:32;104047.44;;;2.69;90.80
72086;BME280;64750;52.134;5.424;2023-01-23T11:04:13;104048.38;;;2.71;90.50
72086;BME280;64750;52.134;5.424;2023-01-23T11:06:44;104041.41;;;2.70;90.74
72086;BME280;64750;52.134;5.424;2023-01-23T11:09:25;104042.22;;;2.67;90.21
72086;BME280;64750;52.134;5.424;2023-01-23T11:11:59;104044.81;;;2.67;90.36
72086;BME280;64750;52.134;5.424;2023-01-23T11:14:26;104046.59;;;2.70;90.20
72086;BME280;64750;52.134;5.424;2023-01-23T11:17:15;104047.44;;;2.69;90.21
72086;BME280;64750;52.134;5.424;2023-01-23T11:19:45;104046.63;;;2.71;90.67
72086;BME280;64750;52.134;5.424;2023-01-23T11:22:41;104042.38;;;2.73;89.85
72086;BME280;64750;52.134;5.424;2023-01-23T11:28:32;104039.75;;;2.72;89.76
72086;BME280;64750;52.134;5.424;2023-01-23T11:31:13;104038.84;;;2.71;90.18
72086;BME280;64750;52.134;5.424;2023-01-23T11:33:57;104041.41;;;2.70;90.43
72086;BME280;64750;52.134;5.424;2023-01-23T11:42:09;104048.47;;;2.75;89.53
72086;BME280;64750;52.134;5.424;2023-01-23T11:44:37;104049.38;;;2.77;89.93
72086;BME280;64750;52.134;5.424;2023-01-23T11:47:44;104054.72;;;2.82;90.19
72086;BME280;64750;52.134;5.424;2023-01-23T11:50:33;104047.91;;;2.87;89.89
72086;BME280;64750;52.134;5.424;2023-01-23T11:53:20;104046.19;;;2.89;89.63
72086;BME280;64750;52.134;5.424;2023-01-23T11:56:25;104048.00;;;2.92;89.71
72086;BME280;64750;52.134;5.424;2023-01-23T12:01:56;104042.91;;;2.97;89.91
72086;BME280;64750;52.134;5.424;2023-01-23T12:07:19;104030.81;;;2.99;89.74
72086;BME280;64750;52.134;5.424;2023-01-23T12:10:10;104031.78;;;3.02;89.54
72086;BME280;64750;52.134;5.424;2023-01-23T12:12:58;104027.50;;;3.04;89.68
72086;BME280;64750;52.134;5.424;2023-01-23T12:16:25;104027.56;;;3.07;89.23
72086;BME280;64750;52.134;5.424;2023-01-23T12:18:48;104017.25;;;3.10;89.46
72086;BME280;64750;52.134;5.424;2023-01-23T12:27:05;104027.69;;;3.14;88.94
72086;BME280;64750;52.134;5.424;2023-01-23T12:29:47;104021.63;;;3.13;89.14
72086;BME280;64750;52.134;5.424;2023-01-23T12:32:29;104024.25;;;3.15;88.80
72086;BME280;64750;52.134;5.424;2023-01-23T12:35:30;104026.88;;;3.16;89.08
72086;BME280;64750;52.134;5.424;2023-01-23T12:38:09;104031.28;;;3.19;88.69
72086;BME280;64750;52.134;5.424;2023-01-23T12:40:49;104028.72;;;3.20;88.48
72086;BME280;64750;52.134;5.424;2023-01-23T12:43:37;104027.03;;;3.22;88.47
72086;BME280;64750;52.134;5.424;2023-01-23T12:46:42;104024.47;;;3.24;88.63
72086;BME280;64750;52.134;5.424;2023-01-23T12:49:34;104033.19;;;3.26;88.32
72086;BME280;64750;52.134;5.424;2023-01-23T12:57:29;104032.38;;;3.28;88.38
72086;BME280;64750;52.134;5.424;2023-01-23T13:00:41;104039.34;;;3.30;88.46
72086;BME280;64750;52.134;5.424;2023-01-23T13:06:26;104035.13;;;3.35;87.78
72086;BME280;64750;52.134;5.424;2023-01-23T13:14:48;104035.94;;;3.34;86.46
72086;BME280;64750;52.134;5.424;2023-01-23T13:20:27;104033.34;;;3.34;86.82
72086;BME280;64750;52.134;5.424;2023-01-23T13:23:30;104036.81;;;3.34;87.13
72086;BME280;64750;52.134;5.424;2023-01-23T13:28:46;104041.19;;;3.35;86.96
72086;BME280;64750;52.134;5.424;2023-01-23T13:36:51;104038.56;;;3.35;86.56
72086;BME280;64750;52.134;5.424;2023-01-23T13:39:26;104047.25;;;3.36;86.18
72086;BME280;64750;52.134;5.424;2023-01-23T13:45:47;104049.84;;;3.36;86.11
72086;BME280;64750;52.134;5.424;2023-01-23T13:51:17;104052.53;;;3.39;85.80
72086;BME280;64750;52.134;5.424;2023-01-23T13:53:58;104049.03;;;3.38;85.91
72086;BME280;64750;52.134;5.424;2023-01-23T13:56:57;104044.72;;;3.39;86.12
72086;BME280;64750;52.134;5.424;2023-01-23T13:59:40;104048.22;;;3.41;85.88
72086;BME280;64750;52.134;5.424;2023-01-23T14:02:28;104041.28;;;3.40;86.18
72086;BME280;64750;52.134;5.424;2023-01-23T14:05:31;104036.09;;;3.40;86.32
72086;BME280;64750;52.134;5.424;2023-01-23T14:08:18;104032.63;;;3.41;86.13
72086;BME280;64750;52.134;5.424;2023-01-23T14:10:59;104014.38;;;3.39;86.30
72086;BME280;64750;52.134;5.424;2023-01-23T14:13:52;104006.59;;;3.39;85.60
72086;BME280;64750;52.134;5.424;2023-01-23T14:16:53;103994.50;;;3.40;86.17
72086;BME280;64750;52.134;5.424;2023-01-23T14:19:33;103990.19;;;3.42;85.83
72086;BME280;64750;52.134;5.424;2023-01-23T14:22:14;103984.09;;;3.40;85.91
72086;BME280;64750;52.134;5.424;2023-01-23T14:24:46;103979.78;;;3.42;86.08
72086;BME280;64750;52.134;5.424;2023-01-23T14:27:27;103971.09;;;3.41;86.17
72086;BME280;64750;52.134;5.424;2023-01-23T14:29:57;103982.38;;;3.42;85.77
72086;BME280;64750;52.134;5.424;2023-01-23T14:32:26;103986.72;;;3.43;85.72
72086;BME280;64750;52.134;5.424;2023-01-23T14:34:53;103983.22;;;3.41;85.72
72086;BME280;64750;52.134;5.424;2023-01-23T14:37:19;103980.66;;;3.42;85.71
72086;BME280;64750;52.134;5.424;2023-01-23T14:39:46;103970.22;;;3.41;85.29